Newnan, Georgia
Current Conditions -  °F | °C
As of 2:35 AM on Wednesday 22 Oct 2014 (Local Time) from KCCO Reporting Station
Clear Clear  
Wind Chill: 55°   Ceiling: Unl
Heat Index: 55°   Visibility: 10mi
Dew Point: 49°   Wind: 6mph
Humidity: 83%   Direction: 350°N
Pressure: 30.04"   Gusts: NA
Location:  33.38°N, 84.8°W
Report Text: KCCO 220635Z AUTO 35005KT 10SM CLR 13/10 A3004 RMK AO2 T01250096
Loading
Personal Weather Stations






























Interactive Weather Map
Tropical Storm Tracking
New forecast layout! Learn more

10-Day Weather Forecast

Advertisements
Track Severe Weather on mobile